sensor_id;sensor_type;location;lat;lon;timestamp;pressure;altitude;pressure_sealevel;temperature;humidity
1480;BME280;732;51.698;4.886;2022-09-28T00:01:22;99736.06;;;11.07;100.00
1480;BME280;732;51.698;4.886;2022-09-28T00:03:54;99729.13;;;11.06;100.00
1480;BME280;732;51.698;4.886;2022-09-28T00:06:26;99692.56;;;10.91;100.00
1480;BME280;732;51.698;4.886;2022-09-28T00:08:54;99752.63;;;11.14;100.00
1480;BME280;732;51.698;4.886;2022-09-28T00:11:24;99696.06;;;10.71;100.00
1480;BME280;732;51.698;4.886;2022-09-28T00:13:56;99710.84;;;10.56;100.00
1480;BME280;732;51.698;4.886;2022-09-28T00:16:28;99716.06;;;10.75;100.00
1480;BME280;732;51.698;4.886;2022-09-28T00:18:59;99741.31;;;11.04;100.00
1480;BME280;732;51.698;4.886;2022-09-28T00:21:31;99555.06;;;9.91;100.00
1480;BME280;732;51.698;4.886;2022-09-28T00:24:02;99743.97;;;10.89;100.00
1480;BME280;732;51.698;4.886;2022-09-28T00:26:45;99671.69;;;10.43;100.00
1480;BME280;732;51.698;4.886;2022-09-28T00:29:21;99732.66;;;10.78;100.00
1480;BME280;732;51.698;4.886;2022-09-28T00:31:51;99714.34;;;10.75;100.00
1480;BME280;732;51.698;4.886;2022-09-28T00:34:28;99675.16;;;10.51;100.00
1480;BME280;732;51.698;4.886;2022-09-28T00:36:58;99707.34;;;10.80;100.00
1480;BME280;732;51.698;4.886;2022-09-28T00:39:27;99741.34;;;10.97;100.00
1480;BME280;732;51.698;4.886;2022-09-28T00:41:58;99724.78;;;10.89;100.00
1480;BME280;732;51.698;4.886;2022-09-28T00:44:44;99750.88;;;11.14;100.00
1480;BME280;732;51.698;4.886;2022-09-28T00:47:23;99671.69;;;10.61;100.00
1480;BME280;732;51.698;4.886;2022-09-28T00:49:58;99690.81;;;10.75;100.00
1480;BME280;732;51.698;4.886;2022-09-28T00:52:33;99682.13;;;10.56;100.00
1480;BME280;732;51.698;4.886;2022-09-28T00:55:05;99694.34;;;10.51;100.00
1480;BME280;732;51.698;4.886;2022-09-28T00:57:35;99719.56;;;10.52;100.00
1480;BME280;732;51.698;4.886;2022-09-28T01:00:06;99753.56;;;10.71;100.00
1480;BME280;732;51.698;4.886;2022-09-28T01:02:35;99746.56;;;10.85;100.00
1480;BME280;732;51.698;4.886;2022-09-28T01:05:06;99755.25;;;10.90;100.00
1480;BME280;732;51.698;4.886;2022-09-28T01:07:37;99755.28;;;10.69;100.00
1480;BME280;732;51.698;4.886;2022-09-28T01:10:07;99680.38;;;10.22;100.00
1480;BME280;732;51.698;4.886;2022-09-28T01:12:36;99743.06;;;10.52;100.00
1480;BME280;732;51.698;4.886;2022-09-28T01:15:05;99681.25;;;10.15;100.00
1480;BME280;732;51.698;4.886;2022-09-28T01:17:49;99764.84;;;10.56;100.00
1480;BME280;732;51.698;4.886;2022-09-28T01:20:56;99752.66;;;10.38;100.00
1480;BME280;732;51.698;4.886;2022-09-28T01:24:10;99766.59;;;10.42;100.00
1480;BME280;732;51.698;4.886;2022-09-28T01:26:50;99764.00;;;10.48;100.00
1480;BME280;732;51.698;4.886;2022-09-28T01:29:47;99763.06;;;10.23;100.00
1480;BME280;732;51.698;4.886;2022-09-28T01:32:46;99780.50;;;10.29;100.00
1480;BME280;732;51.698;4.886;2022-09-28T01:35:20;99736.91;;;10.07;100.00
1480;BME280;732;51.698;4.886;2022-09-28T01:37:53;99769.19;;;10.25;100.00
1480;BME280;732;51.698;4.886;2022-09-28T01:40:26;99754.34;;;10.17;100.00
1480;BME280;732;51.698;4.886;2022-09-28T01:43:01;99768.28;;;10.28;100.00
1480;BME280;732;51.698;4.886;2022-09-28T01:45:37;99762.19;;;10.23;100.00
1480;BME280;732;51.698;4.886;2022-09-28T01:48:09;99749.16;;;10.20;100.00
1480;BME280;732;51.698;4.886;2022-09-28T01:50:41;99773.50;;;10.28;100.00
1480;BME280;732;51.698;4.886;2022-09-28T01:53:18;99758.72;;;10.25;100.00
1480;BME280;732;51.698;4.886;2022-09-28T01:55:52;99726.53;;;10.22;100.00
1480;BME280;732;51.698;4.886;2022-09-28T01:58:29;99755.25;;;10.50;100.00
1480;BME280;732;51.698;4.886;2022-09-28T02:01:04;99763.09;;;10.52;100.00
1480;BME280;732;51.698;4.886;2022-09-28T02:03:41;99761.38;;;10.51;100.00
1480;BME280;732;51.698;4.886;2022-09-28T02:06:17;99741.31;;;10.29;100.00
1480;BME280;732;51.698;4.886;2022-09-28T02:08:50;99743.94;;;10.35;100.00
1480;BME280;732;51.698;4.886;2022-09-28T02:11:25;99754.41;;;10.45;100.00
1480;BME280;732;51.698;4.886;2022-09-28T02:14:00;99760.50;;;10.46;100.00
1480;BME280;732;51.698;4.886;2022-09-28T02:16:35;99757.00;;;10.54;100.00
1480;BME280;732;51.698;4.886;2022-09-28T02:19:09;99756.16;;;10.66;100.00
1480;BME280;732;51.698;4.886;2022-09-28T02:21:42;99765.72;;;10.66;100.00
1480;BME280;732;51.698;4.886;2022-09-28T02:24:17;99754.41;;;10.74;100.00
1480;BME280;732;51.698;4.886;2022-09-28T02:26:51;99757.03;;;10.51;100.00
1480;BME280;732;51.698;4.886;2022-09-28T02:29:24;99744.81;;;10.49;100.00
1480;BME280;732;51.698;4.886;2022-09-28T02:31:52;99607.22;;;9.67;100.00
1480;BME280;732;51.698;4.886;2022-09-28T02:34:21;99730.91;;;10.67;100.00
1480;BME280;732;51.698;4.886;2022-09-28T02:36:49;99750.03;;;10.81;100.00
1480;BME280;732;51.698;4.886;2022-09-28T02:39:18;99748.31;;;10.83;100.00
1480;BME280;732;51.698;4.886;2022-09-28T02:42:00;99744.81;;;10.96;100.00
1480;BME280;732;51.698;4.886;2022-09-28T02:45:02;99730.88;;;10.89;100.00
1480;BME280;732;51.698;4.886;2022-09-28T02:47:53;99690.84;;;10.40;100.00
1480;BME280;732;51.698;4.886;2022-09-28T02:50:36;99760.47;;;10.90;100.00
1480;BME280;732;51.698;4.886;2022-09-28T02:53:23;99756.16;;;11.01;100.00
1480;BME280;732;51.698;4.886;2022-09-28T02:56:10;99762.25;;;10.85;100.00
1480;BME280;732;51.698;4.886;2022-09-28T02:58:52;99763.13;;;10.69;100.00
1480;BME280;732;51.698;4.886;2022-09-28T03:01:30;99734.38;;;10.56;100.00
1480;BME280;732;51.698;4.886;2022-09-28T03:04:10;99763.09;;;10.73;100.00
1480;BME280;732;51.698;4.886;2022-09-28T03:06:45;99764.00;;;10.74;100.00
1480;BME280;732;51.698;4.886;2022-09-28T03:09:23;99729.13;;;10.52;100.00
1480;BME280;732;51.698;4.886;2022-09-28T03:11:57;99763.13;;;10.64;100.00
1480;BME280;732;51.698;4.886;2022-09-28T03:14:28;99763.09;;;10.52;100.00
1480;BME280;732;51.698;4.886;2022-09-28T03:16:58;99769.19;;;10.49;100.00
1480;BME280;732;51.698;4.886;2022-09-28T03:19:29;99740.44;;;10.31;100.00
1480;BME280;732;51.698;4.886;2022-09-28T03:21:59;99770.06;;;10.56;100.00
1480;BME280;732;51.698;4.886;2022-09-28T03:24:28;99741.34;;;10.47;100.00
1480;BME280;732;51.698;4.886;2022-09-28T03:26:56;99772.69;;;10.62;100.00
1480;BME280;732;51.698;4.886;2022-09-28T03:29:24;99774.44;;;10.69;100.00
1480;BME280;732;51.698;4.886;2022-09-28T03:32:00;99757.88;;;10.58;100.00
1480;BME280;732;51.698;4.886;2022-09-28T03:34:29;99784.91;;;10.78;100.00
1480;BME280;732;51.698;4.886;2022-09-28T03:36:57;99777.06;;;10.66;100.00
1480;BME280;732;51.698;4.886;2022-09-28T03:39:26;99749.19;;;10.51;100.00
1480;BME280;732;51.698;4.886;2022-09-28T03:41:54;99782.28;;;10.89;100.00
1480;BME280;732;51.698;4.886;2022-09-28T03:44:23;99777.06;;;10.78;100.00
1480;BME280;732;51.698;4.886;2022-09-28T03:46:51;99771.84;;;10.78;100.00
1480;BME280;732;51.698;4.886;2022-09-28T03:49:21;99777.03;;;10.58;100.00
1480;BME280;732;51.698;4.886;2022-09-28T03:51:49;99712.56;;;10.26;100.00
1480;BME280;732;51.698;4.886;2022-09-28T03:54:18;99764.84;;;10.62;100.00
1480;BME280;732;51.698;4.886;2022-09-28T03:56:46;99768.34;;;10.61;100.00
1480;BME280;732;51.698;4.886;2022-09-28T03:59:15;99770.09;;;10.59;100.00
1480;BME280;732;51.698;4.886;2022-09-28T04:01:44;99710.84;;;10.25;100.00
1480;BME280;732;51.698;4.886;2022-09-28T04:04:15;99740.47;;;10.40;100.00
1480;BME280;732;51.698;4.886;2022-09-28T04:06:46;99734.34;;;10.44;100.00
1480;BME280;732;51.698;4.886;2022-09-28T04:09:14;99731.75;;;10.32;100.00
1480;BME280;732;51.698;4.886;2022-09-28T04:11:46;99769.19;;;10.51;100.00
1480;BME280;732;51.698;4.886;2022-09-28T04:14:31;99653.31;;;9.81;100.00
1480;BME280;732;51.698;4.886;2022-09-28T04:17:00;99723.06;;;10.27;100.00
1480;BME280;732;51.698;4.886;2022-09-28T04:19:30;99723.03;;;10.26;100.00
1480;BME280;732;51.698;4.886;2022-09-28T04:22:38;99724.75;;;10.12;100.00
1480;BME280;732;51.698;4.886;2022-09-28T04:25:08;99756.97;;;10.26;100.00
1480;BME280;732;51.698;4.886;2022-09-28T04:27:36;99742.09;;;10.02;100.00
1480;BME280;732;51.698;4.886;2022-09-28T04:30:22;99763.06;;;10.17;100.00
1480;BME280;732;51.698;4.886;2022-09-28T04:32:51;99735.09;;;9.91;100.00
1480;BME280;732;51.698;4.886;2022-09-28T04:35:20;99768.19;;;10.04;100.00
1480;BME280;732;51.698;4.886;2022-09-28T04:37:50;99765.66;;;10.16;100.00
1480;BME280;732;51.698;4.886;2022-09-28T04:40:18;99726.38;;;9.77;100.00
1480;BME280;732;51.698;4.886;2022-09-28T04:42:52;99756.84;;;9.82;100.00
1480;BME280;732;51.698;4.886;2022-09-28T04:45:22;99780.38;;;10.02;100.00
1480;BME280;732;51.698;4.886;2022-09-28T04:47:54;99724.59;;;9.67;100.00
1480;BME280;732;51.698;4.886;2022-09-28T04:50:30;99776.03;;;10.04;100.00
1480;BME280;732;51.698;4.886;2022-09-28T04:53:22;99749.88;;;9.81;100.00
1480;BME280;732;51.698;4.886;2022-09-28T04:55:57;99721.16;;;9.77;100.00
1480;BME280;732;51.698;4.886;2022-09-28T04:58:27;99780.47;;;10.14;100.00
1480;BME280;732;51.698;4.886;2022-09-28T05:00:58;99750.78;;;10.01;100.00
1480;BME280;732;51.698;4.886;2022-09-28T05:03:54;99706.41;;;9.86;100.00
1480;BME280;732;51.698;4.886;2022-09-28T05:06:37;99707.25;;;9.84;100.00
1480;BME280;732;51.698;4.886;2022-09-28T05:09:08;99779.66;;;10.40;100.00
1480;BME280;732;51.698;4.886;2022-09-28T05:11:36;99778.78;;;10.38;100.00
1480;BME280;732;51.698;4.886;2022-09-28T05:14:10;99793.56;;;10.35;100.00
1480;BME280;732;51.698;4.886;2022-09-28T05:16:39;99682.91;;;9.82;100.00
1480;BME280;732;51.698;4.886;2022-09-28T05:19:28;99731.72;;;10.17;100.00
1480;BME280;732;51.698;4.886;2022-09-28T05:22:01;99780.50;;;10.38;100.00
1480;BME280;732;51.698;4.886;2022-09-28T05:24:38;99779.63;;;10.34;100.00
1480;BME280;732;51.698;4.886;2022-09-28T05:27:06;99743.03;;;10.13;100.00
1480;BME280;732;51.698;4.886;2022-09-28T05:29:34;99680.31;;;9.79;100.00
1480;BME280;732;51.698;4.886;2022-09-28T05:32:21;99782.25;;;10.42;100.00
1480;BME280;732;51.698;4.886;2022-09-28T05:35:19;99761.34;;;10.34;100.00
1480;BME280;732;51.698;4.886;2022-09-28T05:37:48;99785.72;;;10.35;100.00
1480;BME280;732;51.698;4.886;2022-09-28T05:40:18;99708.16;;;10.02;100.00
1480;BME280;732;51.698;4.886;2022-09-28T05:42:47;99790.09;;;10.48;100.00
1480;BME280;732;51.698;4.886;2022-09-28T05:45:16;99784.88;;;10.54;100.00
1480;BME280;732;51.698;4.886;2022-09-28T05:47:44;99790.09;;;10.51;100.00
1480;BME280;732;51.698;4.886;2022-09-28T05:50:17;99636.75;;;9.62;100.00
1480;BME280;732;51.698;4.886;2022-09-28T05:52:46;99791.84;;;10.56;100.00
1480;BME280;732;51.698;4.886;2022-09-28T05:55:17;99797.09;;;10.79;100.00
1480;BME280;732;51.698;4.886;2022-09-28T05:57:46;99664.66;;;10.01;100.00
1480;BME280;732;51.698;4.886;2022-09-28T06:00:16;99646.41;;;10.04;100.00
1480;BME280;732;51.698;4.886;2022-09-28T06:02:58;99800.56;;;11.08;100.00
1480;BME280;732;51.698;4.886;2022-09-28T06:05:34;99545.47;;;9.50;100.00
1480;BME280;732;51.698;4.886;2022-09-28T06:08:04;99799.69;;;11.08;100.00
1480;BME280;732;51.698;4.886;2022-09-28T06:10:35;99732.66;;;10.71;100.00
1480;BME280;732;51.698;4.886;2022-09-28T06:13:05;99743.09;;;10.81;100.00
1480;BME280;732;51.698;4.886;2022-09-28T06:15:35;99748.31;;;10.83;100.00
1480;BME280;732;51.698;4.886;2022-09-28T06:18:08;99793.56;;;11.24;100.00
1480;BME280;732;51.698;4.886;2022-09-28T06:20:50;99760.47;;;11.11;100.00
1480;BME280;732;51.698;4.886;2022-09-28T06:23:29;99794.41;;;11.35;100.00
1480;BME280;732;51.698;4.886;2022-09-28T06:25:59;99795.28;;;11.43;100.00
1480;BME280;732;51.698;4.886;2022-09-28T06:28:29;99768.31;;;11.21;100.00
1480;BME280;732;51.698;4.886;2022-09-28T06:30:59;99620.34;;;10.34;100.00
1480;BME280;732;51.698;4.886;2022-09-28T06:33:29;99797.84;;;11.53;100.00
1480;BME280;732;51.698;4.886;2022-09-28T06:35:58;99797.84;;;11.73;100.00
1480;BME280;732;51.698;4.886;2022-09-28T06:38:26;99751.69;;;11.45;100.00
1480;BME280;732;51.698;4.886;2022-09-28T06:40:56;99736.88;;;11.27;100.00
1480;BME280;732;51.698;4.886;2022-09-28T06:43:26;99807.44;;;11.73;100.00
1480;BME280;732;51.698;4.886;2022-09-28T06:46:12;99783.00;;;11.63;100.00
1480;BME280;732;51.698;4.886;2022-09-28T06:48:50;99810.97;;;11.66;100.00
1480;BME280;732;51.698;4.886;2022-09-28T06:51:32;99794.38;;;11.44;100.00
1480;BME280;732;51.698;4.886;2022-09-28T06:54:10;99795.28;;;11.41;100.00
1480;BME280;732;51.698;4.886;2022-09-28T06:56:41;99804.00;;;11.42;100.00
1480;BME280;732;51.698;4.886;2022-09-28T06:59:11;99804.91;;;11.30;100.00
1480;BME280;732;51.698;4.886;2022-09-28T07:01:40;99821.47;;;11.13;100.00
1480;BME280;732;51.698;4.886;2022-09-28T07:04:28;99820.59;;;11.24;100.00
1480;BME280;732;51.698;4.886;2022-09-28T07:07:16;99765.72;;;10.94;100.00
1480;BME280;732;51.698;4.886;2022-09-28T07:10:21;99777.91;;;10.94;100.00
1480;BME280;732;51.698;4.886;2022-09-28T07:13:14;99819.75;;;11.06;100.00
1480;BME280;732;51.698;4.886;2022-09-28T07:16:07;99725.66;;;10.61;100.00
1480;BME280;732;51.698;4.886;2022-09-28T07:18:35;99838.91;;;11.24;100.00
1480;BME280;732;51.698;4.886;2022-09-28T07:21:04;99846.75;;;11.15;100.00
1480;BME280;732;51.698;4.886;2022-09-28T07:23:35;99845.00;;;11.19;100.00
1480;BME280;732;51.698;4.886;2022-09-28T07:26:22;99825.81;;;11.12;100.00
1480;BME280;732;51.698;4.886;2022-09-28T07:28:54;99847.63;;;11.26;100.00
1480;BME280;732;51.698;4.886;2022-09-28T07:31:55;99857.19;;;11.27;100.00
1480;BME280;732;51.698;4.886;2022-09-28T07:34:26;99849.38;;;11.23;100.00
1480;BME280;732;51.698;4.886;2022-09-28T07:37:08;99770.06;;;10.86;100.00
1480;BME280;732;51.698;4.886;2022-09-28T07:39:39;99816.25;;;11.11;100.00
1480;BME280;732;51.698;4.886;2022-09-28T07:42:44;99840.66;;;11.30;100.00
1480;BME280;732;51.698;4.886;2022-09-28T07:45:13;99796.22;;;10.97;100.00
1480;BME280;732;51.698;4.886;2022-09-28T07:47:43;99852.81;;;11.38;100.00
1480;BME280;732;51.698;4.886;2022-09-28T07:50:27;99834.56;;;11.13;100.00
1480;BME280;732;51.698;4.886;2022-09-28T07:53:19;99824.94;;;11.25;100.00
1480;BME280;732;51.698;4.886;2022-09-28T07:56:14;99844.06;;;11.64;100.00
1480;BME280;732;51.698;4.886;2022-09-28T07:59:02;99866.63;;;12.10;100.00
1480;BME280;732;51.698;4.886;2022-09-28T08:01:49;99844.72;;;12.30;100.00
1480;BME280;732;51.698;4.886;2022-09-28T08:04:19;99688.84;;;11.54;100.00
1480;BME280;732;51.698;4.886;2022-09-28T08:06:47;99858.34;;;12.91;100.00
1480;BME280;732;51.698;4.886;2022-09-28T08:09:18;99866.97;;;13.10;100.00
1480;BME280;732;51.698;4.886;2022-09-28T08:12:06;99870.44;;;13.13;100.00
1480;BME280;732;51.698;4.886;2022-09-28T08:14:41;99746.59;;;12.75;100.00
1480;BME280;732;51.698;4.886;2022-09-28T08:17:46;99782.25;;;12.96;100.00
1480;BME280;732;51.698;4.886;2022-09-28T08:20:18;99729.97;;;12.79;100.00
1480;BME280;732;51.698;4.886;2022-09-28T08:23:05;99859.44;;;13.68;100.00
1480;BME280;732;51.698;4.886;2022-09-28T08:25:35;99777.59;;;13.29;100.00
1480;BME280;732;51.698;4.886;2022-09-28T08:28:05;99826.22;;;13.65;100.00
1480;BME280;732;51.698;4.886;2022-09-28T08:30:41;99768.53;;;13.58;100.00
1480;BME280;732;51.698;4.886;2022-09-28T08:33:45;99861.47;;;14.20;100.00
1480;BME280;732;51.698;4.886;2022-09-28T08:36:33;99862.34;;;14.21;100.00
1480;BME280;732;51.698;4.886;2022-09-28T08:39:28;99861.31;;;14.34;100.00
1480;BME280;732;51.698;4.886;2022-09-28T08:42:22;99829.91;;;14.23;100.00
1480;BME280;732;51.698;4.886;2022-09-28T08:45:22;99836.94;;;14.18;100.00
1480;BME280;732;51.698;4.886;2022-09-28T08:48:31;99828.53;;;13.92;100.00
1480;BME280;732;51.698;4.886;2022-09-28T08:51:52;99831.59;;;14.26;100.00
1480;BME280;732;51.698;4.886;2022-09-28T08:54:38;99861.38;;;14.26;100.00
1480;BME280;732;51.698;4.886;2022-09-28T08:57:19;99870.47;;;14.00;100.00
1480;BME280;732;51.698;4.886;2022-09-28T08:59:52;99843.44;;;13.89;100.00
1480;BME280;732;51.698;4.886;2022-09-28T09:02:29;99856.31;;;14.14;100.00
1480;BME280;732;51.698;4.886;2022-09-28T09:05:15;99884.91;;;14.40;100.00
1480;BME280;732;51.698;4.886;2022-09-28T09:08:23;99862.31;;;14.27;100.00
1480;BME280;732;51.698;4.886;2022-09-28T09:10:59;99888.38;;;14.44;100.00
1480;BME280;732;51.698;4.886;2022-09-28T09:13:54;99823.03;;;14.12;100.00
1480;BME280;732;51.698;4.886;2022-09-28T09:16:36;99772.50;;;13.93;100.00
1480;BME280;732;51.698;4.886;2022-09-28T09:19:51;99851.47;;;14.50;100.00
1480;BME280;732;51.698;4.886;2022-09-28T09:22:38;99861.91;;;14.54;100.00
1480;BME280;732;51.698;4.886;2022-09-28T09:25:20;99841.84;;;14.49;100.00
1480;BME280;732;51.698;4.886;2022-09-28T09:28:23;99846.78;;;14.71;100.00
1480;BME280;732;51.698;4.886;2022-09-28T09:31:10;99889.28;;;15.02;100.00
1480;BME280;732;51.698;4.886;2022-09-28T09:34:10;99830.94;;;14.76;100.00
1480;BME280;732;51.698;4.886;2022-09-28T09:36:59;99883.59;;;15.27;100.00
1480;BME280;732;51.698;4.886;2022-09-28T09:40:16;99885.53;;;15.16;100.00
1480;BME280;732;51.698;4.886;2022-09-28T09:46:23;99892.03;;;15.51;100.00
1480;BME280;732;51.698;4.886;2022-09-28T09:49:21;99885.78;;;15.56;100.00
1480;BME280;732;51.698;4.886;2022-09-28T09:51:58;99854.09;;;15.62;100.00
1480;BME280;732;51.698;4.886;2022-09-28T09:54:36;99878.91;;;15.96;100.00
1480;BME280;732;51.698;4.886;2022-09-28T09:57:14;99866.00;;;15.83;100.00
1480;BME280;732;51.698;4.886;2022-09-28T09:59:51;99835.63;;;15.64;100.00
1480;BME280;732;51.698;4.886;2022-09-28T10:02:29;99806.25;;;15.36;100.00
1480;BME280;732;51.698;4.886;2022-09-28T10:05:21;99882.56;;;15.88;100.00
1480;BME280;732;51.698;4.886;2022-09-28T10:07:57;99842.59;;;15.66;100.00
1480;BME280;732;51.698;4.886;2022-09-28T10:10:32;99896.84;;;16.22;100.00
1480;BME280;732;51.698;4.886;2022-09-28T10:13:08;99890.19;;;16.49;100.00
1480;BME280;732;51.698;4.886;2022-09-28T10:15:40;99842.34;;;16.22;100.00
1480;BME280;732;51.698;4.886;2022-09-28T10:18:32;99866.31;;;16.55;100.00
1480;BME280;732;51.698;4.886;2022-09-28T10:21:21;99842.00;;;16.39;100.00
1480;BME280;732;51.698;4.886;2022-09-28T10:23:59;99862.16;;;16.83;100.00
1480;BME280;732;51.698;4.886;2022-09-28T10:26:33;99875.00;;;16.98;100.00
1480;BME280;732;51.698;4.886;2022-09-28T10:29:11;99814.03;;;16.72;100.00
1480;BME280;732;51.698;4.886;2022-09-28T10:31:45;99828.41;;;16.95;100.00
1480;BME280;732;51.698;4.886;2022-09-28T10:34:26;99870.69;;;16.94;100.00
1480;BME280;732;51.698;4.886;2022-09-28T10:37:01;99864.84;;;16.80;100.00
1480;BME280;732;51.698;4.886;2022-09-28T10:39:53;99836.50;;;16.88;100.00
1480;BME280;732;51.698;4.886;2022-09-28T10:42:27;99835.63;;;16.87;100.00
1480;BME280;732;51.698;4.886;2022-09-28T10:45:03;99782.25;;;16.76;100.00
1480;BME280;732;51.698;4.886;2022-09-28T10:47:36;99867.44;;;17.55;100.00
1480;BME280;732;51.698;4.886;2022-09-28T10:50:18;99846.78;;;17.70;100.00
1480;BME280;732;51.698;4.886;2022-09-28T10:52:50;99865.56;;;17.92;100.00
1480;BME280;732;51.698;4.886;2022-09-28T10:55:39;99861.19;;;17.91;100.00
1480;BME280;732;51.698;4.886;2022-09-28T10:58:25;99826.28;;;17.78;100.00
1480;BME280;732;51.698;4.886;2022-09-28T11:01:02;99859.66;;;17.82;100.00
1480;BME280;732;51.698;4.886;2022-09-28T11:03:49;99792.41;;;17.27;100.00
1480;BME280;732;51.698;4.886;2022-09-28T11:06:24;99842.88;;;17.51;100.00
1480;BME280;732;51.698;4.886;2022-09-28T11:08:56;99863.66;;;17.65;100.00
1480;BME280;732;51.698;4.886;2022-09-28T11:11:27;99822.72;;;17.46;100.00
1480;BME280;732;51.698;4.886;2022-09-28T11:14:04;99853.19;;;17.62;100.00
1480;BME280;732;51.698;4.886;2022-09-28T11:16:36;99819.03;;;17.53;100.00
1480;BME280;732;51.698;4.886;2022-09-28T11:19:26;99838.00;;;17.68;100.00
1480;BME280;732;51.698;4.886;2022-09-28T11:21:55;99849.78;;;17.89;100.00
1480;BME280;732;51.698;4.886;2022-09-28T11:24:35;99796.44;;;17.75;100.00
1480;BME280;732;51.698;4.886;2022-09-28T11:27:04;99843.25;;;18.02;100.00
1480;BME280;732;51.698;4.886;2022-09-28T11:29:36;99819.03;;;17.85;100.00
1480;BME280;732;51.698;4.886;2022-09-28T11:32:40;99841.38;;;17.75;100.00
1480;BME280;732;51.698;4.886;2022-09-28T11:35:43;99826.97;;;17.86;100.00
1480;BME280;732;51.698;4.886;2022-09-28T11:38:38;99811.66;;;17.97;100.00
1480;BME280;732;51.698;4.886;2022-09-28T11:41:44;99805.88;;;18.14;100.00
1480;BME280;732;51.698;4.886;2022-09-28T11:44:37;99799.38;;;18.24;100.00
1480;BME280;732;51.698;4.886;2022-09-28T11:47:46;99829.53;;;18.78;100.00
1480;BME280;732;51.698;4.886;2022-09-28T11:50:27;99811.31;;;18.39;100.00
1480;BME280;732;51.698;4.886;2022-09-28T11:53:10;99807.09;;;18.02;100.00
1480;BME280;732;51.698;4.886;2022-09-28T11:55:46;99809.75;;;17.70;100.00
1480;BME280;732;51.698;4.886;2022-09-28T11:58:25;99809.13;;;17.27;100.00
1480;BME280;732;51.698;4.886;2022-09-28T12:01:01;99793.06;;;17.01;100.00
1480;BME280;732;51.698;4.886;2022-09-28T12:03:59;99828.03;;;16.75;100.00
1480;BME280;732;51.698;4.886;2022-09-28T12:06:38;99827.94;;;16.39;100.00
1480;BME280;732;51.698;4.886;2022-09-28T12:09:14;99860.03;;;16.60;100.00
1480;BME280;732;51.698;4.886;2022-09-28T12:12:05;99834.81;;;16.85;100.00
1480;BME280;732;51.698;4.886;2022-09-28T12:14:45;99865.06;;;17.09;100.00
1480;BME280;732;51.698;4.886;2022-09-28T12:17:22;99869.38;;;17.48;100.00
1480;BME280;732;51.698;4.886;2022-09-28T12:20:00;99824.47;;;17.47;100.00
1480;BME280;732;51.698;4.886;2022-09-28T12:22:35;99808.47;;;17.53;100.00
1480;BME280;732;51.698;4.886;2022-09-28T12:25:11;99814.06;;;17.74;100.00
1480;BME280;732;51.698;4.886;2022-09-28T12:27:50;99859.81;;;17.76;100.00
1480;BME280;732;51.698;4.886;2022-09-28T12:30:22;99855.16;;;18.17;100.00
1480;BME280;732;51.698;4.886;2022-09-28T12:32:58;99833.88;;;18.21;100.00
1480;BME280;732;51.698;4.886;2022-09-28T12:35:38;99739.13;;;18.06;100.00
1480;BME280;732;51.698;4.886;2022-09-28T12:38:42;99851.84;;;18.39;100.00
1480;BME280;732;51.698;4.886;2022-09-28T12:41:46;99843.34;;;18.59;100.00
1480;BME280;732;51.698;4.886;2022-09-28T12:44:32;99761.50;;;17.94;100.00
1480;BME280;732;51.698;4.886;2022-09-28T12:47:35;99765.28;;;18.15;100.00
1480;BME280;732;51.698;4.886;2022-09-28T12:50:18;99838.59;;;18.97;100.00
1480;BME280;732;51.698;4.886;2022-09-28T12:53:33;99839.66;;;18.92;100.00
1480;BME280;732;51.698;4.886;2022-09-28T12:56:10;99769.78;;;18.96;100.00
1480;BME280;732;51.698;4.886;2022-09-28T12:58:58;99707.00;;;18.73;100.00
1480;BME280;732;51.698;4.886;2022-09-28T13:02:12;99850.25;;;19.72;100.00
1480;BME280;732;51.698;4.886;2022-09-28T13:05:18;99839.53;;;20.24;100.00
1480;BME280;732;51.698;4.886;2022-09-28T13:08:01;99838.22;;;19.62;100.00
1480;BME280;732;51.698;4.886;2022-09-28T13:10:40;99848.13;;;19.57;100.00
1480;BME280;732;51.698;4.886;2022-09-28T13:13:25;99853.38;;;19.32;100.00
1480;BME280;732;51.698;4.886;2022-09-28T13:16:05;99829.56;;;19.31;100.00
1480;BME280;732;51.698;4.886;2022-09-28T13:18:45;99777.78;;;18.94;100.00
1480;BME280;732;51.698;4.886;2022-09-28T13:21:26;99860.59;;;19.27;100.00
1480;BME280;732;51.698;4.886;2022-09-28T13:24:00;99804.28;;;19.21;100.00
1480;BME280;732;51.698;4.886;2022-09-28T13:26:54;99799.00;;;18.67;100.00
1480;BME280;732;51.698;4.886;2022-09-28T13:29:24;99867.66;;;19.00;100.00
1480;BME280;732;51.698;4.886;2022-09-28T13:31:56;99872.25;;;18.66;100.00
1480;BME280;732;51.698;4.886;2022-09-28T13:34:31;99839.03;;;18.26;100.00
1480;BME280;732;51.698;4.886;2022-09-28T13:37:19;99876.81;;;18.61;100.00
1480;BME280;732;51.698;4.886;2022-09-28T13:39:50;99877.19;;;18.17;100.00
1480;BME280;732;51.698;4.886;2022-09-28T13:42:57;99701.38;;;16.74;100.00
1480;BME280;732;51.698;4.886;2022-09-28T13:45:51;99802.47;;;17.46;100.00
1480;BME280;732;51.698;4.886;2022-09-28T13:48:34;99882.47;;;18.17;100.00
1480;BME280;732;51.698;4.886;2022-09-28T13:51:22;99848.31;;;17.79;100.00
1480;BME280;732;51.698;4.886;2022-09-28T13:54:10;99869.22;;;17.88;100.00
1480;BME280;732;51.698;4.886;2022-09-28T13:56:51;99838.88;;;17.69;100.00
1480;BME280;732;51.698;4.886;2022-09-28T13:59:25;99876.94;;;17.95;100.00
1480;BME280;732;51.698;4.886;2022-09-28T14:01:59;99828.06;;;17.44;100.00
1480;BME280;732;51.698;4.886;2022-09-28T14:04:55;99848.44;;;17.74;100.00
1480;BME280;732;51.698;4.886;2022-09-28T14:07:25;99798.13;;;17.44;100.00
1480;BME280;732;51.698;4.886;2022-09-28T14:10:19;99839.00;;;17.64;100.00
1480;BME280;732;51.698;4.886;2022-09-28T14:12:48;99856.16;;;17.82;100.00
1480;BME280;732;51.698;4.886;2022-09-28T14:15:46;99847.09;;;18.21;100.00
1480;BME280;732;51.698;4.886;2022-09-28T14:18:27;99829.53;;;18.19;100.00
1480;BME280;732;51.698;4.886;2022-09-28T14:21:20;99880.81;;;18.45;100.00
1480;BME280;732;51.698;4.886;2022-09-28T14:24:18;99848.03;;;18.20;100.00
1480;BME280;732;51.698;4.886;2022-09-28T14:27:09;99861.84;;;18.30;100.00
1480;BME280;732;51.698;4.886;2022-09-28T14:29:40;99851.50;;;18.22;100.00
1480;BME280;732;51.698;4.886;2022-09-28T14:32:24;99832.19;;;18.19;100.00